createdAt,value
2022-09-16T00:00:47.331Z,9.63
2022-09-16T00:03:16.488Z,10.50
2022-09-16T00:05:44.921Z,10.25
2022-09-16T00:08:12.095Z,12.63
2022-09-16T00:10:39.065Z,10.85
2022-09-16T00:13:06.194Z,8.95
2022-09-16T00:15:33.352Z,11.73
2022-09-16T00:18:00.427Z,13.30
2022-09-16T00:20:28.274Z,13.75
2022-09-16T00:22:55.232Z,9.88
2022-09-16T00:25:22.158Z,9.80
2022-09-16T00:27:49.693Z,10.60
2022-09-16T00:30:17.061Z,11.07
2022-09-16T00:32:44.822Z,15.52
2022-09-16T00:35:11.826Z,13.68
2022-09-16T00:37:38.833Z,10.95
2022-09-16T00:40:06.600Z,8.68
2022-09-16T00:42:38.836Z,11.38
2022-09-16T00:45:13.947Z,12.38
2022-09-16T00:47:45.290Z,8.90
2022-09-16T00:50:18.313Z,11.07
2022-09-16T00:52:45.776Z,12.55
2022-09-16T00:55:18.835Z,12.65
2022-09-16T00:57:47.425Z,12.10
2022-09-16T01:00:14.653Z,11.48
2022-09-16T01:02:43.952Z,12.15
2022-09-16T01:05:16.925Z,13.02
2022-09-16T01:07:45.563Z,8.35
2022-09-16T01:10:15.368Z,10.40
2022-09-16T01:12:49.699Z,10.20
2022-09-16T01:15:18.081Z,11.47
2022-09-16T01:18:20.160Z,11.98
2022-09-16T01:21:09.964Z,12.48
2022-09-16T01:24:03.984Z,12.98
2022-09-16T01:26:53.412Z,13.18
2022-09-16T01:29:50.394Z,11.05
2022-09-16T01:32:38.258Z,12.65
2022-09-16T01:35:29.625Z,12.80
2022-09-16T01:38:14.783Z,11.63
2022-09-16T01:41:19.636Z,12.18
2022-09-16T01:44:06.003Z,12.15
2022-09-16T01:46:45.516Z,11.57
2022-09-16T01:49:33.041Z,10.00
2022-09-16T01:52:20.175Z,13.40
2022-09-16T01:55:00.645Z,10.85
2022-09-16T01:57:55.206Z,11.77
2022-09-16T02:00:23.010Z,15.40
2022-09-16T02:03:05.463Z,9.85
2022-09-16T02:06:12.317Z,11.57
2022-09-16T02:09:01.933Z,11.52
2022-09-16T02:11:29.857Z,11.00
2022-09-16T02:14:06.395Z,11.55
2022-09-16T02:16:50.289Z,10.70
2022-09-16T02:19:24.811Z,10.07
2022-09-16T02:21:55.450Z,9.23
2022-09-16T02:24:24.124Z,11.63
2022-09-16T02:27:00.751Z,9.70
2022-09-16T02:29:40.362Z,9.65
2022-09-16T02:32:09.343Z,7.45
2022-09-16T02:34:42.169Z,8.52
2022-09-16T02:37:16.097Z,8.82
2022-09-16T02:39:47.116Z,11.77
2022-09-16T02:42:14.519Z,13.18
2022-09-16T02:44:41.488Z,10.25
2022-09-16T02:47:22.314Z,9.45
2022-09-16T02:50:04.203Z,6.70
2022-09-16T02:52:46.507Z,9.82
2022-09-16T02:55:16.273Z,8.77
2022-09-16T02:57:43.296Z,8.05
2022-09-16T03:00:10.837Z,8.70
2022-09-16T03:02:38.054Z,9.40
2022-09-16T03:05:05.971Z,10.00
2022-09-16T03:07:33.894Z,8.30
2022-09-16T03:10:01.051Z,8.60
2022-09-16T03:12:46.769Z,6.97
2022-09-16T03:15:49.129Z,7.93
2022-09-16T03:19:09.607Z,6.97
2022-09-16T03:22:16.262Z,6.85
2022-09-16T03:25:08.905Z,6.82
2022-09-16T03:28:17.011Z,7.88
2022-09-16T03:30:52.067Z,8.55
2022-09-16T03:33:48.488Z,7.22
2022-09-16T03:36:19.293Z,6.40
2022-09-16T03:38:48.531Z,9.38
2022-09-16T03:41:16.800Z,5.45
2022-09-16T03:43:54.459Z,5.72
2022-09-16T03:46:21.665Z,8.32
2022-09-16T03:48:48.596Z,6.32
2022-09-16T03:51:16.043Z,6.93
2022-09-16T03:53:42.919Z,8.02
2022-09-16T03:56:09.940Z,6.22
2022-09-16T03:58:37.114Z,5.55
2022-09-16T04:01:04.294Z,7.07
2022-09-16T04:03:33.406Z,7.72
2022-09-16T04:06:00.519Z,7.07
2022-09-16T04:08:27.687Z,7.70
2022-09-16T04:11:03.087Z,6.05
2022-09-16T04:13:30.891Z,5.63
2022-09-16T04:15:57.974Z,5.85
2022-09-16T04:18:25.397Z,6.72
2022-09-16T04:20:59.925Z,7.00
2022-09-16T04:23:28.068Z,6.93
2022-09-16T04:25:59.963Z,9.05
2022-09-16T04:28:28.103Z,5.22
2022-09-16T04:30:55.110Z,7.70
2022-09-16T04:33:22.226Z,9.90
2022-09-16T04:35:49.119Z,8.25
2022-09-16T04:38:16.061Z,6.88
2022-09-16T04:40:43.075Z,7.05
2022-09-16T04:43:10.168Z,6.25
2022-09-16T04:45:37.188Z,5.85
2022-09-16T04:48:04.286Z,5.50
2022-09-16T04:50:31.300Z,7.70
2022-09-16T04:52:58.327Z,6.85
2022-09-16T04:55:25.242Z,8.07
2022-09-16T04:57:52.507Z,7.35
2022-09-16T05:00:19.599Z,8.23
2022-09-16T05:02:46.791Z,7.63
2022-09-16T05:05:13.901Z,9.00
2022-09-16T05:07:40.906Z,6.68
2022-09-16T05:10:08.498Z,8.65
2022-09-16T05:12:35.490Z,8.85
2022-09-16T05:15:02.491Z,6.60
2022-09-16T05:17:49.934Z,11.20
2022-09-16T05:20:17.904Z,9.02
2022-09-16T05:22:45.024Z,10.40
2022-09-16T05:25:12.287Z,9.07
2022-09-16T05:27:39.254Z,9.52
2022-09-16T05:30:06.712Z,9.80
2022-09-16T05:32:33.663Z,11.15
2022-09-16T05:35:00.604Z,15.77
2022-09-16T05:37:27.761Z,8.95
2022-09-16T05:39:55.516Z,11.27
2022-09-16T05:42:22.485Z,10.13
2022-09-16T05:44:49.460Z,8.63
2022-09-16T05:47:16.435Z,11.23
2022-09-16T05:49:43.343Z,12.63
2022-09-16T05:52:10.372Z,13.63
2022-09-16T05:54:37.423Z,12.70
2022-09-16T05:57:07.245Z,14.60
2022-09-16T05:59:34.541Z,10.50
2022-09-16T06:02:01.591Z,11.82
2022-09-16T06:04:28.579Z,14.00
2022-09-16T06:06:55.581Z,11.82
2022-09-16T06:09:24.471Z,11.55
2022-09-16T06:11:58.046Z,10.38
2022-09-16T06:14:28.561Z,12.52
2022-09-16T06:16:55.613Z,11.55
2022-09-16T06:19:22.640Z,13.20
2022-09-16T06:21:49.910Z,11.73
2022-09-16T06:24:17.941Z,10.63
2022-09-16T06:26:46.083Z,10.00
2022-09-16T06:29:13.928Z,12.57
2022-09-16T06:31:41.105Z,10.77
2022-09-16T06:34:12.907Z,11.38
2022-09-16T06:36:44.662Z,9.68
2022-09-16T06:39:14.411Z,15.02
2022-09-16T06:41:41.527Z,14.77
2022-09-16T06:44:08.649Z,12.65
2022-09-16T06:46:35.644Z,14.70
2022-09-16T06:49:05.821Z,16.90
2022-09-16T06:51:35.813Z,17.52
2022-09-16T06:54:05.447Z,15.43
2022-09-16T06:56:35.968Z,12.88
2022-09-16T06:59:03.615Z,15.60
2022-09-16T07:01:31.709Z,17.45
2022-09-16T07:04:02.256Z,14.02
2022-09-16T07:07:04.781Z,17.02
2022-09-16T07:09:17.995Z,23.13
2022-09-16T07:11:44.998Z,17.92
2022-09-16T07:14:12.391Z,18.33
2022-09-16T07:16:39.619Z,18.67
2022-09-16T07:19:06.631Z,15.23
2022-09-16T07:21:33.681Z,19.67
2022-09-16T07:24:02.535Z,14.20
2022-09-16T07:26:35.029Z,17.00
2022-09-16T07:29:04.671Z,17.52
2022-09-16T07:31:34.192Z,15.68
2022-09-16T07:34:04.351Z,16.80
2022-09-16T07:36:35.016Z,19.27
2022-09-16T07:39:03.119Z,17.65
2022-09-16T07:41:35.330Z,24.38
2022-09-16T07:44:03.368Z,17.42
2022-09-16T07:46:33.005Z,17.02
2022-09-16T07:49:02.022Z,15.63
2022-09-16T07:51:30.205Z,16.02
2022-09-16T07:53:59.636Z,20.08
2022-09-16T07:56:29.198Z,20.00
2022-09-16T07:58:57.334Z,16.40
2022-09-16T08:01:25.404Z,16.98
2022-09-16T08:03:52.877Z,15.55
2022-09-16T08:06:22.765Z,22.52
2022-09-16T08:08:53.467Z,17.95
2022-09-16T08:11:21.451Z,16.70
2022-09-16T08:13:48.992Z,19.38
2022-09-16T08:16:21.250Z,20.05
2022-09-16T08:18:50.798Z,22.67
2022-09-16T08:21:26.957Z,17.65
2022-09-16T08:23:55.671Z,17.10
2022-09-16T08:26:23.261Z,18.50
2022-09-16T08:29:07.760Z,17.70
2022-09-16T08:31:36.945Z,17.55
2022-09-16T08:34:04.306Z,17.17
2022-09-16T08:36:33.206Z,16.75
2022-09-16T08:39:00.712Z,23.67
2022-09-16T08:42:04.343Z,19.05
2022-09-16T08:45:07.906Z,18.23
2022-09-16T08:48:08.097Z,19.80
2022-09-16T08:50:39.632Z,19.40
2022-09-16T08:53:29.663Z,21.75
2022-09-16T08:55:56.695Z,18.10
2022-09-16T08:58:29.747Z,23.83
2022-09-16T09:01:20.382Z,18.20
2022-09-16T09:03:48.991Z,22.15
2022-09-16T09:06:40.945Z,21.52
2022-09-16T09:09:25.628Z,19.95
2022-09-16T09:11:56.746Z,18.65
2022-09-16T09:14:48.506Z,20.73
2022-09-16T09:17:48.661Z,19.77
2022-09-16T09:20:41.429Z,21.00
2022-09-16T09:23:45.342Z,18.52
2022-09-16T09:26:42.084Z,23.13
2022-09-16T09:29:29.934Z,21.67
2022-09-16T09:32:20.880Z,24.52
2022-09-16T09:34:53.704Z,19.98
2022-09-16T09:37:45.974Z,20.30
2022-09-16T09:40:34.826Z,19.45
2022-09-16T09:43:23.355Z,22.88
2022-09-16T09:46:15.235Z,17.83
2022-09-16T09:48:48.088Z,22.27
2022-09-16T09:51:30.816Z,19.98
2022-09-16T09:54:03.241Z,22.23
2022-09-16T09:56:37.148Z,27.08
2022-09-16T09:59:31.827Z,20.42
2022-09-16T10:02:01.873Z,19.98
2022-09-16T10:04:38.026Z,22.90
2022-09-16T10:07:06.531Z,19.58
2022-09-16T10:09:35.953Z,23.88
2022-09-16T10:12:04.588Z,18.77
2022-09-16T10:14:37.513Z,19.08
2022-09-16T10:17:16.810Z,19.15
2022-09-16T10:20:01.638Z,16.77
2022-09-16T10:25:01.846Z,23.40
2022-09-16T10:27:34.211Z,22.25
2022-09-16T10:30:07.569Z,81.18
2022-09-16T10:32:56.346Z,20.00
2022-09-16T10:35:26.519Z,19.63
2022-09-16T10:38:16.702Z,18.80
2022-09-16T10:40:53.418Z,22.15
2022-09-16T10:43:21.967Z,22.60
2022-09-16T10:45:52.676Z,23.20
2022-09-16T10:48:23.507Z,20.05
2022-09-16T10:50:53.800Z,20.15
2022-09-16T10:53:39.211Z,23.83
2022-09-16T10:56:18.487Z,19.08
2022-09-16T10:58:45.596Z,20.55
2022-09-16T11:01:27.938Z,20.85
2022-09-16T11:04:02.014Z,14.25
2022-09-16T11:06:34.655Z,17.35
2022-09-16T11:09:23.078Z,16.02
2022-09-16T11:12:01.660Z,16.05
2022-09-16T11:14:46.998Z,17.73
2022-09-16T11:17:51.775Z,19.42
2022-09-16T11:20:21.912Z,14.05
2022-09-16T11:23:04.250Z,16.10
2022-09-16T11:25:54.394Z,14.77
2022-09-16T11:28:38.156Z,14.77
2022-09-16T11:31:36.364Z,17.40
2022-09-16T11:34:24.138Z,14.18
2022-09-16T11:37:13.649Z,12.02
2022-09-16T11:40:07.242Z,14.50
2022-09-16T11:42:46.747Z,15.90
2022-09-16T11:45:43.092Z,15.45
2022-09-16T11:48:47.888Z,12.93
2022-09-16T11:51:33.047Z,12.30
2022-09-16T11:54:38.992Z,17.63
2022-09-16T11:57:15.016Z,13.02
2022-09-16T11:59:51.903Z,12.23
2022-09-16T12:02:36.620Z,14.98
2022-09-16T12:05:13.330Z,13.93
2022-09-16T12:07:45.344Z,13.95
2022-09-16T12:10:54.609Z,14.88
2022-09-16T12:13:35.072Z,10.77
2022-09-16T12:16:13.656Z,9.63
2022-09-16T12:18:49.651Z,11.48
2022-09-16T12:21:21.101Z,14.52
2022-09-16T12:24:15.258Z,12.75
2022-09-16T12:26:56.525Z,11.25
2022-09-16T12:29:48.480Z,13.10
2022-09-16T12:32:22.981Z,8.73
2022-09-16T12:34:55.937Z,11.43
2022-09-16T12:37:44.799Z,10.60
2022-09-16T12:40:20.874Z,9.93
2022-09-16T12:43:13.667Z,9.65
2022-09-16T12:46:28.312Z,10.90
2022-09-16T12:49:13.479Z,7.20
2022-09-16T12:52:09.149Z,11.75
2022-09-16T12:55:06.532Z,8.98
2022-09-16T12:57:58.263Z,8.70
2022-09-16T13:00:37.804Z,9.07
2022-09-16T13:03:17.915Z,6.88
2022-09-16T13:05:48.051Z,8.73
2022-09-16T13:08:30.639Z,11.43
2022-09-16T13:12:07.131Z,8.15
2022-09-16T13:14:03.600Z,5.63
2022-09-16T13:16:36.445Z,8.70
2022-09-16T13:19:38.846Z,7.57
2022-09-16T13:22:18.497Z,7.90
2022-09-16T13:25:04.652Z,9.88
2022-09-16T13:27:36.939Z,8.63
2022-09-16T13:30:11.436Z,9.05
2022-09-16T13:32:38.573Z,7.32
2022-09-16T13:35:23.358Z,9.55
2022-09-16T13:37:57.719Z,9.73
2022-09-16T13:40:27.885Z,7.17
2022-09-16T13:43:10.160Z,6.60
2022-09-16T13:45:43.030Z,9.90
2022-09-16T13:48:16.746Z,7.93
2022-09-16T13:50:49.243Z,9.20
2022-09-16T13:53:36.665Z,8.63
2022-09-16T13:56:21.366Z,5.28
2022-09-16T13:59:36.784Z,12.20
2022-09-16T14:02:19.588Z,7.38
2022-09-16T14:05:09.548Z,5.82
2022-09-16T14:08:07.451Z,7.32
2022-09-16T14:10:52.776Z,5.43
2022-09-16T14:13:22.361Z,5.22
2022-09-16T14:16:15.612Z,7.10
2022-09-16T14:18:53.249Z,4.82
2022-09-16T14:21:23.534Z,5.03
2022-09-16T14:23:50.783Z,5.10
2022-09-16T14:26:20.583Z,5.85
2022-09-16T14:28:47.986Z,5.63
2022-09-16T14:31:29.518Z,13.30
2022-09-16T14:34:02.033Z,6.63
2022-09-16T14:36:35.053Z,6.38
2022-09-16T14:39:08.321Z,7.90
2022-09-16T14:41:48.790Z,5.72
2022-09-16T14:44:18.907Z,6.72
2022-09-16T14:47:09.047Z,9.77
2022-09-16T14:49:40.292Z,5.78
2022-09-16T14:52:21.164Z,6.60
2022-09-16T14:54:48.948Z,6.45
2022-09-16T14:57:22.457Z,7.75
2022-09-16T14:59:52.266Z,6.50
2022-09-16T15:02:41.076Z,5.25
2022-09-16T15:05:07.996Z,7.20
2022-09-16T15:07:50.870Z,9.13
2022-09-16T15:10:39.687Z,6.15
2022-09-16T15:13:18.175Z,8.75
2022-09-16T15:15:49.398Z,8.20
2022-09-16T15:18:24.313Z,6.00
2022-09-16T15:23:29.298Z,8.23
2022-09-16T15:25:59.807Z,9.60
2022-09-16T15:28:26.847Z,6.35
2022-09-16T15:30:55.964Z,8.32
2022-09-16T15:33:35.459Z,11.02
2022-09-16T15:36:04.220Z,8.23
2022-09-16T15:38:31.745Z,7.22
2022-09-16T15:41:10.800Z,6.10
2022-09-16T15:43:45.172Z,6.45
2022-09-16T15:46:23.340Z,9.95
2022-09-16T15:48:55.735Z,7.50
2022-09-16T15:51:45.217Z,6.65
2022-09-16T15:54:26.683Z,9.68
2022-09-16T15:57:02.136Z,5.38
2022-09-16T15:59:39.225Z,12.52
2022-09-16T16:02:30.377Z,8.07
2022-09-16T16:05:20.150Z,5.72
2022-09-16T16:07:52.796Z,7.50
2022-09-16T16:10:21.604Z,12.95
2022-09-16T16:12:49.905Z,8.20
2022-09-16T16:15:19.701Z,8.27
2022-09-16T16:17:47.875Z,7.25
2022-09-16T16:20:16.035Z,10.85
2022-09-16T16:22:46.663Z,9.85
2022-09-16T16:25:14.111Z,6.65
2022-09-16T16:27:41.206Z,6.95
2022-09-16T16:30:09.032Z,8.07
2022-09-16T16:32:38.499Z,10.32
2022-09-16T16:35:06.286Z,7.18
2022-09-16T16:37:45.852Z,11.02
2022-09-16T16:40:14.831Z,9.73
2022-09-16T16:42:43.536Z,8.38
2022-09-16T16:45:13.215Z,10.48
2022-09-16T16:47:40.364Z,6.57
2022-09-16T16:50:07.570Z,8.10
2022-09-16T16:52:34.512Z,7.35
2022-09-16T16:55:01.465Z,7.85
2022-09-16T16:57:28.432Z,6.63
2022-09-16T16:59:55.484Z,6.80
2022-09-16T17:02:22.687Z,7.15
2022-09-16T17:04:50.771Z,10.88
2022-09-16T17:07:26.519Z,9.02
2022-09-16T17:09:54.955Z,8.57
2022-09-16T17:12:22.152Z,8.90
2022-09-16T17:14:49.076Z,9.57
2022-09-16T17:17:15.998Z,6.68
2022-09-16T17:19:42.945Z,10.15
2022-09-16T17:22:10.633Z,11.55
2022-09-16T17:24:37.639Z,7.75
2022-09-16T17:27:04.752Z,12.10
2022-09-16T17:29:31.840Z,8.32
2022-09-16T17:32:02.415Z,9.40
2022-09-16T17:34:30.213Z,5.60
2022-09-16T17:36:58.296Z,4.97
2022-09-16T17:39:25.858Z,5.85
2022-09-16T17:41:54.524Z,6.75
2022-09-16T17:44:22.082Z,5.13
2022-09-16T17:46:49.080Z,9.18
2022-09-16T17:49:24.260Z,12.32
2022-09-16T17:51:52.448Z,6.25
2022-09-16T17:54:20.338Z,6.78
2022-09-16T17:56:47.312Z,9.88
2022-09-16T17:59:17.751Z,6.95
2022-09-16T18:01:44.961Z,7.32
2022-09-16T18:04:12.594Z,9.10
2022-09-16T18:06:42.361Z,4.45
2022-09-16T18:09:09.805Z,4.95
2022-09-16T18:11:38.099Z,4.80
2022-09-16T18:14:07.928Z,7.05
2022-09-16T18:16:34.977Z,5.07
2022-09-16T18:19:03.982Z,6.10
2022-09-16T18:21:31.533Z,6.93
2022-09-16T18:24:02.363Z,7.28
2022-09-16T18:26:30.597Z,4.55
2022-09-16T18:29:09.689Z,6.75
2022-09-16T18:31:43.659Z,4.40
2022-09-16T18:34:11.276Z,6.15
2022-09-16T18:36:39.396Z,6.60
2022-09-16T18:39:07.748Z,5.35
2022-09-16T18:41:38.085Z,6.20
2022-09-16T18:44:13.272Z,6.28
2022-09-16T18:49:07.617Z,4.22
2022-09-16T18:51:37.323Z,4.97
2022-09-16T18:54:13.127Z,4.68
2022-09-16T18:56:41.118Z,5.25
2022-09-16T18:59:21.958Z,6.32
2022-09-16T19:01:51.187Z,4.78
2022-09-16T19:04:21.154Z,5.53
2022-09-16T19:06:50.329Z,5.93
2022-09-16T19:09:19.446Z,8.32
2022-09-16T19:11:47.608Z,4.95
2022-09-16T19:14:15.341Z,5.25
2022-09-16T19:16:45.112Z,4.85
2022-09-16T19:19:14.894Z,6.70
2022-09-16T19:21:42.922Z,5.80
2022-09-16T19:24:17.819Z,7.10
2022-09-16T19:26:46.156Z,7.07
2022-09-16T19:29:14.582Z,5.68
2022-09-16T19:31:43.893Z,7.93
2022-09-16T19:34:12.190Z,5.15
2022-09-16T19:36:40.187Z,8.48
2022-09-16T19:39:08.402Z,4.28
2022-09-16T19:41:37.451Z,7.28
2022-09-16T19:44:07.063Z,4.82
2022-09-16T19:46:36.405Z,4.80
2022-09-16T19:49:05.292Z,5.72
2022-09-16T19:51:33.331Z,5.22
2022-09-16T19:54:01.243Z,5.40
2022-09-16T19:56:31.516Z,4.45
2022-09-16T19:58:58.886Z,6.30
2022-09-16T20:01:33.758Z,4.38
2022-09-16T20:04:02.632Z,4.53
2022-09-16T20:06:34.900Z,5.32
2022-09-16T20:09:04.345Z,5.22
2022-09-16T20:11:33.974Z,3.88
2022-09-16T20:14:04.024Z,4.70
2022-09-16T20:16:35.802Z,4.90
2022-09-16T20:19:05.778Z,4.68
2022-09-16T20:21:34.966Z,4.15
2022-09-16T20:24:05.640Z,7.60
2022-09-16T20:26:34.147Z,5.53
2022-09-16T20:29:01.734Z,6.43
2022-09-16T20:31:31.647Z,4.78
2022-09-16T20:33:59.394Z,6.43
2022-09-16T20:36:27.958Z,4.20
2022-09-16T20:38:54.909Z,4.28
2022-09-16T20:41:23.186Z,5.20
2022-09-16T20:43:50.841Z,6.20
2022-09-16T20:46:21.661Z,5.00
2022-09-16T20:48:49.272Z,5.35
2022-09-16T20:51:19.074Z,5.93
2022-09-16T20:53:54.901Z,5.60
2022-09-16T20:56:22.247Z,6.00
2022-09-16T20:58:49.746Z,5.45
2022-09-16T21:01:22.797Z,5.63
2022-09-16T21:04:02.107Z,5.43
2022-09-16T21:06:29.517Z,5.22
2022-09-16T21:08:59.597Z,6.53
2022-09-16T21:11:29.501Z,8.77
2022-09-16T21:14:00.703Z,4.72
2022-09-16T21:16:31.774Z,6.30
2022-09-16T21:19:00.645Z,7.15
2022-09-16T21:21:28.851Z,5.70
2022-09-16T21:23:58.186Z,6.00
2022-09-16T21:26:33.467Z,6.63
2022-09-16T21:29:03.855Z,6.00
2022-09-16T21:31:38.038Z,6.50
2022-09-16T21:34:07.211Z,4.75
2022-09-16T21:36:35.417Z,5.80
2022-09-16T21:39:02.806Z,4.72
2022-09-16T21:41:30.132Z,5.07
2022-09-16T21:43:57.707Z,6.43
2022-09-16T21:46:31.840Z,5.63
2022-09-16T21:49:02.000Z,4.90
2022-09-16T21:51:37.079Z,5.88
2022-09-16T21:54:07.776Z,4.13
2022-09-16T21:56:37.532Z,5.38
2022-09-16T21:59:04.710Z,5.13
2022-09-16T22:01:32.108Z,4.47
2022-09-16T22:04:05.356Z,7.22
2022-09-16T22:06:33.511Z,5.65
2022-09-16T22:09:02.554Z,5.15
2022-09-16T22:11:32.624Z,5.78
2022-09-16T22:14:00.691Z,5.10
2022-09-16T22:16:30.828Z,5.32
2022-09-16T22:19:01.645Z,6.07
2022-09-16T22:21:31.460Z,4.60
2022-09-16T22:23:59.819Z,5.75
2022-09-16T22:26:28.288Z,6.43
2022-09-16T22:28:55.806Z,6.22
2022-09-16T22:31:25.395Z,6.15
2022-09-16T22:33:54.236Z,6.38
2022-09-16T22:36:24.114Z,5.45
2022-09-16T22:38:53.376Z,6.95
2022-09-16T22:41:20.927Z,6.93
2022-09-16T22:43:49.559Z,6.63
2022-09-16T22:46:19.102Z,5.80
2022-09-16T22:48:47.090Z,6.13
2022-09-16T22:51:15.807Z,8.65
2022-09-16T22:53:43.854Z,5.57
2022-09-16T22:56:17.922Z,6.15
2022-09-16T22:58:45.758Z,5.53
2022-09-16T23:01:18.563Z,5.60
2022-09-16T23:03:47.025Z,4.60
2022-09-16T23:06:15.565Z,4.57
2022-09-16T23:08:47.442Z,5.28
2022-09-16T23:11:17.167Z,6.05
2022-09-16T23:13:45.338Z,4.70
2022-09-16T23:16:15.959Z,7.88
2022-09-16T23:18:44.868Z,5.32
2022-09-16T23:21:14.567Z,4.63
2022-09-16T23:23:45.660Z,5.25
2022-09-16T23:26:24.092Z,6.55
2022-09-16T23:28:53.435Z,4.82
2022-09-16T23:31:22.997Z,10.25
2022-09-16T23:33:50.402Z,5.32
2022-09-16T23:36:18.260Z,5.88
2022-09-16T23:38:48.531Z,4.95
2022-09-16T23:41:19.836Z,5.60
2022-09-16T23:43:48.153Z,4.75
2022-09-16T23:46:17.650Z,5.45
2022-09-16T23:48:45.296Z,7.72
2022-09-16T23:51:13.179Z,6.43
2022-09-16T23:53:42.369Z,6.68
2022-09-16T23:56:11.544Z,5.80
2022-09-16T23:58:39.824Z,4.97
